createdAt,value
2022-08-03T00:00:24.352Z,3.75
2022-08-03T00:02:51.498Z,3.83
2022-08-03T00:05:18.316Z,3.53
2022-08-03T00:07:44.991Z,4.35
2022-08-03T00:10:13.588Z,3.78
2022-08-03T00:12:40.189Z,3.67
2022-08-03T00:15:11.240Z,3.95
2022-08-03T00:17:52.322Z,3.80
2022-08-03T00:20:19.955Z,3.72
2022-08-03T00:22:46.553Z,3.67
2022-08-03T00:25:13.263Z,4.15
2022-08-03T00:27:39.950Z,3.53
2022-08-03T00:30:07.430Z,4.40
2022-08-03T00:32:34.167Z,4.00
2022-08-03T00:35:00.760Z,4.18
2022-08-03T00:37:41.260Z,3.70
2022-08-03T00:40:13.346Z,3.85
2022-08-03T00:43:00.928Z,3.90
2022-08-03T00:45:32.915Z,3.90
2022-08-03T00:48:01.548Z,4.13
2022-08-03T00:50:30.414Z,4.10
2022-08-03T00:52:59.154Z,4.00
2022-08-03T00:55:26.436Z,3.20
2022-08-03T00:57:54.180Z,3.30
2022-08-03T01:00:24.341Z,3.15
2022-08-03T01:02:51.823Z,3.50
2022-08-03T01:05:19.284Z,3.17
2022-08-03T01:08:08.258Z,3.58
2022-08-03T01:10:49.999Z,3.72
2022-08-03T01:14:03.680Z,3.20
2022-08-03T01:16:35.807Z,3.47
2022-08-03T01:19:30.010Z,3.65
2022-08-03T01:22:23.966Z,3.78
2022-08-03T01:24:50.528Z,2.90
2022-08-03T01:27:29.873Z,3.17
2022-08-03T01:30:08.478Z,3.13
2022-08-03T01:32:53.304Z,2.92
2022-08-03T01:35:44.862Z,3.28
2022-08-03T01:38:27.288Z,3.05
2022-08-03T01:40:56.275Z,3.22
2022-08-03T01:44:28.303Z,3.22
2022-08-03T01:46:15.906Z,3.15
2022-08-03T01:48:44.575Z,3.60
2022-08-03T01:51:12.242Z,3.40
2022-08-03T01:53:42.926Z,3.00
2022-08-03T01:56:10.911Z,3.35
2022-08-03T01:58:39.945Z,3.38
2022-08-03T02:01:08.940Z,3.38
2022-08-03T02:03:59.536Z,3.38
2022-08-03T02:06:59.926Z,3.42
2022-08-03T02:09:15.515Z,3.38
2022-08-03T02:11:43.890Z,3.50
2022-08-03T02:14:11.253Z,3.60
2022-08-03T02:16:38.263Z,3.65
2022-08-03T02:19:07.503Z,3.63
2022-08-03T02:21:57.135Z,3.33
2022-08-03T02:24:24.490Z,3.55
2022-08-03T02:26:55.642Z,3.35
2022-08-03T02:29:40.070Z,3.17
2022-08-03T02:32:11.912Z,3.20
2022-08-03T02:34:42.387Z,3.17
2022-08-03T02:37:11.861Z,3.72
2022-08-03T02:39:40.926Z,3.30
2022-08-03T02:42:09.655Z,3.85
2022-08-03T02:44:40.489Z,3.53
2022-08-03T02:47:11.015Z,3.33
2022-08-03T02:49:51.504Z,3.45
2022-08-03T02:52:21.632Z,3.40
2022-08-03T02:54:51.329Z,3.17
2022-08-03T02:57:20.173Z,3.33
2022-08-03T02:59:48.057Z,3.05
2022-08-03T03:02:16.590Z,3.88
2022-08-03T03:05:50.683Z,3.72
2022-08-03T03:07:39.131Z,3.38
2022-08-03T03:10:24.606Z,3.15
2022-08-03T03:12:55.248Z,3.10
2022-08-03T03:15:23.560Z,3.83
2022-08-03T03:17:51.940Z,3.17
2022-08-03T03:20:26.711Z,3.13
2022-08-03T03:22:59.074Z,3.63
2022-08-03T03:25:26.240Z,3.92
2022-08-03T03:27:53.353Z,3.42
2022-08-03T03:30:19.946Z,3.45
2022-08-03T03:32:46.630Z,3.40
2022-08-03T03:35:14.140Z,3.30
2022-08-03T03:37:40.886Z,3.28
2022-08-03T03:40:09.136Z,3.45
2022-08-03T03:42:36.145Z,3.60
2022-08-03T03:45:07.803Z,3.25
2022-08-03T03:47:35.704Z,3.30
2022-08-03T03:50:04.836Z,3.40
2022-08-03T03:52:34.605Z,3.50
2022-08-03T03:55:01.842Z,3.45
2022-08-03T03:57:29.593Z,3.22
2022-08-03T03:59:56.759Z,3.45
2022-08-03T04:02:23.535Z,3.63
2022-08-03T04:05:08.795Z,3.97
2022-08-03T04:08:07.602Z,4.00
2022-08-03T04:10:54.674Z,3.40
2022-08-03T04:13:22.177Z,4.28
2022-08-03T04:15:50.661Z,3.47
2022-08-03T04:18:19.138Z,3.88
2022-08-03T04:20:48.904Z,4.32
2022-08-03T04:23:20.512Z,4.47
2022-08-03T04:25:51.642Z,3.92
2022-08-03T04:28:31.070Z,4.00
2022-08-03T04:31:01.084Z,3.58
2022-08-03T04:33:30.302Z,3.65
2022-08-03T04:36:02.757Z,4.85
2022-08-03T04:38:33.026Z,4.70
2022-08-03T04:41:01.563Z,4.60
2022-08-03T04:43:29.697Z,5.63
2022-08-03T04:45:57.057Z,4.55
2022-08-03T04:48:24.596Z,4.75
2022-08-03T04:50:51.950Z,4.40
2022-08-03T04:53:19.554Z,5.35
2022-08-03T04:55:46.636Z,4.78
2022-08-03T04:58:13.487Z,5.43
2022-08-03T05:00:40.190Z,4.78
2022-08-03T05:03:23.629Z,5.82
2022-08-03T05:06:01.670Z,5.40
2022-08-03T05:08:29.086Z,4.85
2022-08-03T05:10:59.304Z,4.70
2022-08-03T05:13:26.264Z,5.47
2022-08-03T05:15:53.055Z,5.20
2022-08-03T05:18:19.979Z,5.22
2022-08-03T05:20:46.906Z,4.95
2022-08-03T05:23:13.589Z,4.80
2022-08-03T05:25:40.229Z,5.53
2022-08-03T05:28:16.212Z,5.75
2022-08-03T05:30:42.896Z,5.68
2022-08-03T05:33:09.432Z,4.72
2022-08-03T05:36:01.124Z,4.70
2022-08-03T05:38:28.559Z,5.03
2022-08-03T05:41:22.724Z,5.40
2022-08-03T05:43:46.780Z,5.15
2022-08-03T05:46:13.850Z,4.97
2022-08-03T05:48:41.280Z,4.82
2022-08-03T05:51:11.719Z,5.18
2022-08-03T05:53:42.221Z,5.18
2022-08-03T05:56:14.104Z,5.45
2022-08-03T05:58:48.469Z,4.70
2022-08-03T06:01:19.111Z,4.85
2022-08-03T06:03:46.576Z,4.00
2022-08-03T06:06:13.154Z,3.60
2022-08-03T06:08:40.854Z,3.90
2022-08-03T06:11:07.990Z,3.40
2022-08-03T06:13:34.948Z,3.90
2022-08-03T06:16:02.075Z,3.95
2022-08-03T06:18:28.835Z,3.88
2022-08-03T06:20:55.501Z,4.07
2022-08-03T06:23:22.191Z,3.95
2022-08-03T06:25:48.982Z,3.80
2022-08-03T06:28:42.512Z,3.47
2022-08-03T06:31:03.701Z,3.97
2022-08-03T06:34:22.832Z,3.60
2022-08-03T06:36:20.435Z,3.35
2022-08-03T06:38:47.048Z,3.70
2022-08-03T06:41:13.619Z,3.50
2022-08-03T06:44:03.392Z,3.47
2022-08-03T06:46:27.470Z,3.75
2022-08-03T06:48:54.198Z,3.90
2022-08-03T06:51:20.779Z,4.18
2022-08-03T06:54:08.124Z,3.92
2022-08-03T06:56:34.910Z,3.97
2022-08-03T06:59:01.706Z,4.15
2022-08-03T07:01:28.321Z,4.13
2022-08-03T07:03:56.434Z,4.40
2022-08-03T07:06:23.035Z,3.88
2022-08-03T07:08:52.943Z,4.40
2022-08-03T07:11:21.083Z,4.50
2022-08-03T07:13:47.611Z,4.53
2022-08-03T07:16:14.467Z,4.65
2022-08-03T07:18:41.207Z,3.58
2022-08-03T07:21:09.397Z,4.43
2022-08-03T07:23:35.957Z,4.30
2022-08-03T07:26:02.718Z,4.45
2022-08-03T07:28:29.410Z,4.43
2022-08-03T07:30:56.115Z,4.35
2022-08-03T07:33:23.082Z,4.15
2022-08-03T07:35:49.748Z,3.83
2022-08-03T07:38:16.407Z,4.63
2022-08-03T07:40:46.178Z,4.82
2022-08-03T07:43:13.166Z,4.03
2022-08-03T07:45:39.931Z,4.40
2022-08-03T07:48:11.775Z,4.30
2022-08-03T07:50:39.026Z,4.20
2022-08-03T07:53:05.830Z,4.20
2022-08-03T07:55:32.576Z,4.05
2022-08-03T07:58:19.168Z,3.90
2022-08-03T08:00:49.018Z,4.25
2022-08-03T08:03:15.722Z,3.72
2022-08-03T08:05:42.575Z,4.18
2022-08-03T08:08:09.225Z,3.90
2022-08-03T08:10:36.015Z,3.90
2022-08-03T08:13:03.721Z,3.90
2022-08-03T08:15:31.654Z,3.63
2022-08-03T08:18:01.080Z,3.72
2022-08-03T08:20:32.896Z,4.10
2022-08-03T08:23:22.304Z,3.90
2022-08-03T08:25:52.497Z,3.65
2022-08-03T08:28:30.710Z,3.30
2022-08-03T08:30:59.755Z,3.75
2022-08-03T08:33:37.252Z,3.92
2022-08-03T08:36:14.760Z,4.30
2022-08-03T08:38:42.753Z,3.55
2022-08-03T08:41:11.549Z,3.50
2022-08-03T08:43:38.679Z,3.40
2022-08-03T08:46:08.562Z,3.28
2022-08-03T08:48:39.937Z,3.10
2022-08-03T08:51:08.601Z,4.72
2022-08-03T08:53:37.700Z,4.20
2022-08-03T08:56:05.504Z,3.65
2022-08-03T08:58:38.196Z,3.35
2022-08-03T09:01:05.688Z,3.05
2022-08-03T09:03:34.397Z,3.33
2022-08-03T09:06:02.295Z,3.25
2022-08-03T09:08:30.941Z,3.28
2022-08-03T09:10:58.064Z,3.08
2022-08-03T09:13:25.062Z,3.13
2022-08-03T09:16:14.670Z,3.55
2022-08-03T09:18:44.653Z,3.53
2022-08-03T09:21:31.254Z,3.40
2022-08-03T09:24:03.243Z,3.53
2022-08-03T09:26:32.043Z,4.00
2022-08-03T09:29:11.213Z,4.00
2022-08-03T09:31:46.299Z,3.63
2022-08-03T09:34:15.420Z,3.28
2022-08-03T09:36:48.960Z,3.60
2022-08-03T09:39:40.176Z,3.20
2022-08-03T09:42:17.327Z,3.58
2022-08-03T09:44:47.746Z,3.15
2022-08-03T09:47:17.216Z,3.10
2022-08-03T09:49:58.091Z,2.97
2022-08-03T09:52:50.222Z,3.10
2022-08-03T09:56:32.639Z,3.30
2022-08-03T09:58:11.012Z,3.20
2022-08-03T10:01:04.215Z,2.75
2022-08-03T10:03:35.134Z,2.88
2022-08-03T10:06:28.741Z,3.03
2022-08-03T10:09:07.001Z,2.35
2022-08-03T10:11:41.252Z,2.88
2022-08-03T10:14:11.358Z,2.60
2022-08-03T10:16:40.427Z,2.63
2022-08-03T10:19:08.643Z,2.50
2022-08-03T10:21:39.264Z,3.08
2022-08-03T10:24:08.491Z,2.83
2022-08-03T10:26:50.035Z,2.88
2022-08-03T10:29:28.219Z,2.80
2022-08-03T10:31:58.726Z,3.17
2022-08-03T10:34:35.523Z,2.95
2022-08-03T10:37:10.983Z,2.42
2022-08-03T10:39:37.961Z,2.65
2022-08-03T10:42:05.924Z,2.15
2022-08-03T10:44:42.538Z,2.58
2022-08-03T10:47:13.041Z,2.58
2022-08-03T10:49:40.233Z,2.40
2022-08-03T10:52:10.415Z,2.08
2022-08-03T10:55:03.489Z,2.65
2022-08-03T10:57:59.088Z,2.28
2022-08-03T11:00:30.096Z,2.40
2022-08-03T11:03:06.763Z,2.30
2022-08-03T11:05:36.337Z,2.00
2022-08-03T11:08:22.979Z,2.22
2022-08-03T11:10:51.320Z,2.10
2022-08-03T11:13:23.601Z,2.33
2022-08-03T11:15:53.581Z,2.42
2022-08-03T11:18:27.205Z,2.15
2022-08-03T11:20:56.286Z,2.08
2022-08-03T11:24:03.215Z,2.38
2022-08-03T11:26:33.082Z,1.80
2022-08-03T11:29:29.005Z,1.90
2022-08-03T11:31:55.711Z,2.00
2022-08-03T11:34:24.571Z,1.80
2022-08-03T11:37:21.847Z,2.17
2022-08-03T11:39:50.343Z,2.10
2022-08-03T11:42:23.254Z,1.90
2022-08-03T11:44:52.013Z,1.83
2022-08-03T11:47:23.179Z,2.35
2022-08-03T11:49:53.064Z,1.85
2022-08-03T11:52:27.189Z,2.05
2022-08-03T11:54:57.165Z,2.10
2022-08-03T11:59:00.815Z,2.03
2022-08-03T12:00:27.062Z,2.03
2022-08-03T12:02:59.152Z,2.40
2022-08-03T12:05:51.759Z,1.92
2022-08-03T12:08:28.123Z,2.63
2022-08-03T12:11:00.484Z,2.13
2022-08-03T12:14:44.635Z,1.83
2022-08-03T12:16:26.061Z,2.25
2022-08-03T12:19:01.622Z,2.35
2022-08-03T12:21:29.312Z,1.70
2022-08-03T12:24:01.373Z,2.10
2022-08-03T12:26:30.117Z,2.35
2022-08-03T12:28:57.424Z,1.80
2022-08-03T12:31:24.898Z,1.70
2022-08-03T12:33:58.935Z,1.90
2022-08-03T12:36:26.798Z,1.67
2022-08-03T12:38:59.077Z,1.80
2022-08-03T12:41:34.373Z,1.85
2022-08-03T12:44:03.587Z,1.65
2022-08-03T12:46:46.911Z,1.80
2022-08-03T12:49:17.919Z,1.50
2022-08-03T12:52:07.594Z,1.65
2022-08-03T12:54:36.052Z,1.88
2022-08-03T12:57:16.215Z,1.80
2022-08-03T13:02:24.264Z,2.05
2022-08-03T13:04:53.309Z,2.10
2022-08-03T13:07:20.884Z,1.75
2022-08-03T13:09:58.653Z,1.92
2022-08-03T13:12:27.970Z,1.92
2022-08-03T13:15:01.010Z,2.07
2022-08-03T13:17:28.383Z,1.60
2022-08-03T13:19:55.097Z,1.73
2022-08-03T13:22:27.352Z,2.10
2022-08-03T13:24:56.651Z,2.15
2022-08-03T13:28:03.422Z,2.07
2022-08-03T13:30:21.070Z,2.05
2022-08-03T13:32:58.607Z,2.05
2022-08-03T13:35:25.595Z,1.90
2022-08-03T13:37:52.276Z,2.22
2022-08-03T13:40:18.995Z,2.50
2022-08-03T13:42:50.410Z,1.90
2022-08-03T13:45:17.132Z,2.20
2022-08-03T13:47:43.701Z,2.20
2022-08-03T13:50:10.330Z,2.15
2022-08-03T13:52:37.060Z,1.83
2022-08-03T13:55:07.441Z,2.10
2022-08-03T13:58:04.142Z,1.77
2022-08-03T14:00:28.929Z,2.00
2022-08-03T14:03:04.016Z,1.52
2022-08-03T14:05:34.480Z,2.47
2022-08-03T14:08:03.962Z,1.70
2022-08-03T14:10:32.786Z,1.60
2022-08-03T14:13:00.496Z,1.60
2022-08-03T14:15:28.563Z,1.80
2022-08-03T14:17:55.884Z,1.75
2022-08-03T14:20:38.034Z,1.77
2022-08-03T14:23:07.369Z,1.75
2022-08-03T14:25:43.134Z,1.70
2022-08-03T14:28:21.127Z,2.10
2022-08-03T14:30:48.718Z,1.70
2022-08-03T14:33:15.600Z,2.08
2022-08-03T14:35:42.319Z,1.63
2022-08-03T14:38:08.900Z,1.63
2022-08-03T14:40:35.545Z,1.60
2022-08-03T14:43:02.616Z,2.03
2022-08-03T14:45:29.352Z,1.90
2022-08-03T14:50:34.054Z,1.67
2022-08-03T14:50:48.379Z,1.73
2022-08-03T14:53:20.385Z,1.90
2022-08-03T14:55:49.752Z,2.22
2022-08-03T14:58:20.027Z,1.50
2022-08-03T15:00:49.455Z,2.03
2022-08-03T15:03:17.121Z,1.60
2022-08-03T15:05:44.570Z,1.50
2022-08-03T15:08:11.404Z,1.77
2022-08-03T15:10:43.950Z,1.45
2022-08-03T15:13:15.212Z,1.70
2022-08-03T15:15:41.982Z,1.88
2022-08-03T15:18:08.973Z,1.75
2022-08-03T15:20:44.515Z,1.50
2022-08-03T15:23:12.920Z,1.70
2022-08-03T15:26:28.359Z,1.67
2022-08-03T15:28:26.220Z,1.85
2022-08-03T15:30:53.213Z,1.67
2022-08-03T15:33:20.261Z,1.75
2022-08-03T15:35:47.739Z,1.85
2022-08-03T15:38:14.858Z,1.85
2022-08-03T15:40:41.821Z,1.58
2022-08-03T15:43:08.774Z,1.75
2022-08-03T15:45:36.607Z,1.90
2022-08-03T15:48:07.161Z,2.00
2022-08-03T15:50:33.885Z,1.88
2022-08-03T15:53:00.555Z,1.85
2022-08-03T15:55:27.414Z,1.67
2022-08-03T15:59:10.430Z,1.90
2022-08-03T16:00:42.747Z,1.80
2022-08-03T16:03:10.139Z,2.38
2022-08-03T16:05:36.985Z,1.77
2022-08-03T16:08:05.616Z,1.80
2022-08-03T16:10:33.774Z,1.65
2022-08-03T16:13:00.787Z,2.13
2022-08-03T16:15:27.836Z,1.98
2022-08-03T16:17:54.929Z,1.77
2022-08-03T16:20:31.668Z,2.80
2022-08-03T16:23:10.333Z,2.25
2022-08-03T16:25:39.402Z,2.03
2022-08-03T16:28:13.117Z,2.25
2022-08-03T16:30:44.353Z,2.28
2022-08-03T16:33:17.062Z,2.00
2022-08-03T16:35:49.630Z,1.95
2022-08-03T16:38:19.039Z,2.15
2022-08-03T16:40:51.577Z,1.75
2022-08-03T16:43:19.712Z,1.83
2022-08-03T16:45:47.826Z,2.45
2022-08-03T16:48:15.788Z,2.03
2022-08-03T16:50:42.532Z,2.28
2022-08-03T16:53:16.766Z,2.13
2022-08-03T16:55:51.937Z,1.98
2022-08-03T16:58:34.233Z,1.70
2022-08-03T17:03:42.645Z,1.60
2022-08-03T17:06:33.884Z,1.90
2022-08-03T17:09:03.244Z,2.20
2022-08-03T17:11:32.958Z,1.88
2022-08-03T17:14:00.420Z,1.73
2022-08-03T17:16:27.518Z,1.92
2022-08-03T17:19:02.011Z,1.88
2022-08-03T17:21:33.203Z,2.25
2022-08-03T17:24:34.411Z,1.80
2022-08-03T17:27:08.583Z,1.70
2022-08-03T17:29:45.270Z,2.05
2022-08-03T17:32:18.092Z,1.83
2022-08-03T17:34:48.953Z,1.85
2022-08-03T17:37:50.692Z,1.90
2022-08-03T17:40:03.969Z,2.10
2022-08-03T17:42:32.940Z,1.95
2022-08-03T17:45:01.593Z,1.52
2022-08-03T17:47:41.864Z,1.40
2022-08-03T17:53:01.268Z,1.55
2022-08-03T17:55:56.041Z,1.45
2022-08-03T17:58:36.751Z,1.52
2022-08-03T18:01:59.761Z,1.85
2022-08-03T18:04:12.691Z,1.63
2022-08-03T18:06:56.315Z,1.85
2022-08-03T18:10:05.183Z,1.80
2022-08-03T18:12:18.992Z,1.42
2022-08-03T18:14:57.886Z,1.50
2022-08-03T18:17:55.464Z,1.23
2022-08-03T18:20:32.890Z,1.65
2022-08-03T18:23:04.746Z,1.52
2022-08-03T18:25:42.992Z,1.42
2022-08-03T18:28:14.628Z,1.92
2022-08-03T18:30:54.063Z,2.00
2022-08-03T18:34:16.411Z,1.50
2022-08-03T18:39:01.731Z,1.67
2022-08-03T18:41:32.246Z,1.40
2022-08-03T18:44:07.181Z,2.05
2022-08-03T18:47:07.373Z,2.28
2022-08-03T18:50:12.295Z,2.58
2022-08-03T18:53:19.589Z,2.35
2022-08-03T18:56:02.260Z,1.98
2022-08-03T18:59:02.524Z,2.40
2022-08-03T19:02:00.851Z,2.10
2022-08-03T19:04:30.472Z,2.33
2022-08-03T19:07:09.287Z,2.15
2022-08-03T19:09:49.466Z,2.93
2022-08-03T19:12:30.637Z,2.63
2022-08-03T19:15:13.560Z,2.22
2022-08-03T19:17:50.087Z,2.80
2022-08-03T19:20:21.994Z,3.05
2022-08-03T19:22:51.155Z,2.85
2022-08-03T19:25:18.262Z,2.63
2022-08-03T19:27:47.207Z,2.92
2022-08-03T19:30:35.635Z,2.70
2022-08-03T19:35:52.036Z,3.13
2022-08-03T19:38:28.335Z,2.78
2022-08-03T19:41:02.632Z,2.47
2022-08-03T19:43:52.604Z,2.35
2022-08-03T19:46:21.822Z,2.42
2022-08-03T19:49:14.953Z,2.58
2022-08-03T19:52:01.194Z,2.30
2022-08-03T19:54:39.556Z,3.10
2022-08-03T19:57:18.600Z,2.42
2022-08-03T19:59:49.908Z,2.83
2022-08-03T20:02:27.289Z,2.65
2022-08-03T20:05:00.014Z,2.35
2022-08-03T20:07:47.643Z,2.72
2022-08-03T20:10:16.561Z,2.78
2022-08-03T20:12:44.918Z,2.20
2022-08-03T20:15:12.233Z,2.92
2022-08-03T20:17:56.837Z,2.33
2022-08-03T20:20:32.697Z,2.78
2022-08-03T20:23:03.916Z,2.50
2022-08-03T20:25:48.686Z,2.90
2022-08-03T20:28:50.335Z,3.42
2022-08-03T20:31:18.952Z,3.10
2022-08-03T20:33:49.098Z,3.10
2022-08-03T20:36:17.892Z,2.63
2022-08-03T20:38:47.260Z,3.05
2022-08-03T20:41:15.806Z,2.97
2022-08-03T20:43:42.421Z,2.88
2022-08-03T20:46:32.005Z,2.75
2022-08-03T20:48:59.009Z,3.35
2022-08-03T20:51:49.162Z,2.88
2022-08-03T20:54:28.948Z,3.17
2022-08-03T20:56:58.366Z,3.03
2022-08-03T20:59:29.893Z,2.72
2022-08-03T21:02:00.251Z,3.35
2022-08-03T21:04:27.021Z,4.03
2022-08-03T21:07:04.684Z,3.70
2022-08-03T21:09:57.110Z,3.97
2022-08-03T21:12:34.068Z,4.00
2022-08-03T21:13:05.735Z,1.80
2022-08-03T21:15:05.787Z,3.03
2022-08-03T21:17:41.993Z,2.95
2022-08-03T21:20:11.804Z,3.45
2022-08-03T21:22:39.513Z,3.65
2022-08-03T21:25:09.363Z,3.00
2022-08-03T21:27:36.734Z,3.20
2022-08-03T21:30:07.947Z,3.95
2022-08-03T21:32:35.096Z,3.47
2022-08-03T21:35:02.245Z,3.15
2022-08-03T21:37:29.160Z,3.83
2022-08-03T21:39:56.514Z,3.50
2022-08-03T21:42:24.497Z,3.35
2022-08-03T21:44:52.180Z,4.38
2022-08-03T21:47:22.065Z,3.17
2022-08-03T21:50:08.442Z,3.40
2022-08-03T21:52:44.884Z,3.08
2022-08-03T21:55:18.290Z,2.95
2022-08-03T21:57:52.886Z,3.38
2022-08-03T22:00:21.936Z,2.90
2022-08-03T22:02:56.075Z,3.42
2022-08-03T22:05:43.036Z,4.13
2022-08-03T22:08:14.247Z,3.50
2022-08-03T22:10:44.296Z,3.30
2022-08-03T22:13:12.934Z,3.10
2022-08-03T22:15:39.699Z,3.10
2022-08-03T22:18:06.592Z,3.90
2022-08-03T22:20:33.395Z,3.15
2022-08-03T22:23:06.799Z,3.72
2022-08-03T22:25:35.869Z,3.60
2022-08-03T22:28:07.977Z,3.63
2022-08-03T22:30:34.994Z,3.38
2022-08-03T22:33:04.197Z,3.42
2022-08-03T22:35:32.402Z,3.65
2022-08-03T22:38:13.549Z,3.38
2022-08-03T22:40:40.475Z,3.50
2022-08-03T22:43:07.763Z,3.15
2022-08-03T22:45:45.832Z,3.40
2022-08-03T22:48:22.939Z,3.80
2022-08-03T22:50:50.227Z,4.18
2022-08-03T22:53:18.912Z,4.63
2022-08-03T22:55:47.637Z,3.75
2022-08-03T22:58:17.530Z,3.70
2022-08-03T23:00:56.385Z,3.28
2022-08-03T23:03:59.712Z,3.33
2022-08-03T23:06:20.195Z,3.55
2022-08-03T23:08:47.697Z,3.47
2022-08-03T23:11:17.601Z,3.00
2022-08-03T23:13:49.184Z,3.17
2022-08-03T23:16:29.675Z,3.40
2022-08-03T23:18:58.765Z,3.47
2022-08-03T23:21:59.857Z,3.92
2022-08-03T23:26:57.749Z,2.90
2022-08-03T23:29:26.248Z,2.85
2022-08-03T23:31:54.728Z,2.85
2022-08-03T23:34:40.546Z,3.05
2022-08-03T23:37:07.193Z,3.38
2022-08-03T23:39:35.147Z,2.90
2022-08-03T23:42:03.077Z,2.50
2022-08-03T23:44:31.383Z,2.80
2022-08-03T23:46:58.104Z,2.53
2022-08-03T23:49:24.863Z,2.75
2022-08-03T23:51:55.857Z,3.13
2022-08-03T23:54:26.969Z,2.90
2022-08-03T23:59:39.115Z,2.67
